• Join FlightAware (Why Join?)
  • Login
  • US Flag 
11:54AM EST


 

Airport Tracker/Info


-or-


 

Live Flight TrackerFlight Track Log ✈ N609C ✈ 16-Oct-2013 ✈ 3D2 - KRYV

Flight Track Log - Related Links

Times and Time Zones

All times are in EDT time to prevent confusion due to time zone crossing. See the N609C flight status page for this flight to view local times or setup timezone preferences in your user account.

Time Position Orientation Groundspeed Altitude Reporting Facility
EDT Latitude Longitude Course Direction KTS MPH feet Rate Location/Type
03:00PM 44.9306 -87.3658 209° Southwest 159 183 3,900  Level Minneapolis Center
03:01PM 44.8847 -87.4022 209° Southwest 158 182 6,000 360 Climbing Minneapolis Center
03:02PM 44.8503 -87.4303 210° Southwest 160 184 4,700  Descending Minneapolis Center
03:03PM 44.9076 -87.3693 209° Southwest  Level FlightAware Approximate
03:03PM 44.7911 -87.4722 207° Southwest 155 178 6,000  Level Minneapolis Center
03:04PM 44.8696 -87.3994 209° Southwest  Level FlightAware Approximate
03:04PM 44.7550 -87.5014 210° Southwest 150 173 6,000  Level Minneapolis Center
03:06PM 44.7169 -87.5364 213° Southwest 157 181 6,000  Level Minneapolis Center
03:07PM 44.6694 -87.5742 209° Southwest 163 188 6,000  Level Minneapolis Center
03:08PM 44.6283 -87.6050 208° Southwest 165 190 6,000  Level Minneapolis Center
03:09PM 44.5878 -87.6333 206° Southwest 164 189 6,000  Level Minneapolis Center
03:10PM 44.5483 -87.6656 210° Southwest 164 189 6,000  Level Minneapolis Center
03:11PM 44.5092 -87.7003 212° Southwest 166 191 6,000  Level Minneapolis Center
03:12PM 44.4675 -87.7303 207° Southwest 166 191 6,000  Level Minneapolis Center
03:13PM 44.4275 -87.7614 209° Southwest 166 191 6,000  Level Minneapolis Center
03:14PM 44.3789 -87.8019 211° Southwest 169 194 6,000  Level Minneapolis Center
03:15PM 44.3378 -87.8306 206° Southwest 167 192 6,000  Level Minneapolis Center
03:16PM 44.2975 -87.8619 209° Southwest 166 191 6,000  Level Minneapolis Center
03:17PM 44.2567 -87.8950 210° Southwest 168 193 6,000  Level Minneapolis Center
03:18PM 44.2161 -87.9272 210° Southwest 168 193 6,000  Level Minneapolis Center
03:19PM 44.1750 -87.9592 209° Southwest 169 194 6,000  Level Minneapolis Center
03:20PM 44.1253 -87.9956 208° Southwest 169 194 6,000  Level Minneapolis Center
03:21PM 44.0842 -88.0289 210° Southwest 169 194 6,000  Level Minneapolis Center
03:22PM 44.0425 -88.0597 208° Southwest 170 196 6,000  Level Minneapolis Center
03:23PM 44.0019 -88.0919 210° Southwest 170 196 6,000 -120 Level Chicago Center
03:24PM 43.9600 -88.1242 209° Southwest 171 197 5,800 -420 Descending Chicago Center
03:25PM 43.9164 -88.1564 208° Southwest 173 199 5,200 -660 Descending Chicago Center
03:26PM 43.8625 -88.1950 207° Southwest 179 206 4,500 -660 Descending Chicago Center
03:27PM 43.8186 -88.2283 209° Southwest 180 207 3,900 -300 Descending Chicago Center
03:28PM 43.7769 -88.2592 208° Southwest 177 204 4,000  Climbing Chicago Center
03:29PM 43.7361 -88.2900 209° Southwest 171 197 4,000  Level Chicago Center
03:30PM 43.6947 -88.3197 207° Southwest 169 194 4,000  Level Chicago Center
03:31PM 43.6544 -88.3497 208° Southwest 167 192 4,000  Level Chicago Center
03:32PM 43.6058 -88.3861 208° Southwest 166 191 4,000  Level Chicago Center
03:33PM 43.5650 -88.4158 208° Southwest 166 191 4,000  Level Chicago Center
03:34PM 43.5244 -88.4458 208° Southwest 166 191 4,000  Level Chicago Center
03:35PM 43.4833 -88.4753 207° Southwest 167 192 4,000  Level Chicago Center
03:37PM 43.4369 -88.5094 208° Southwest 168 193 4,000  Level Chicago Center
03:38PM 43.3981 -88.5383 208° Southwest 165 190 4,000  Level Chicago Center
03:39PM 43.3661 -88.5617 208° Southwest 148 170 4,000 -240 Level Chicago Center
03:40PM 43.3331 -88.5397 154° Southeast 151 174 3,600 -540 Descending Chicago Center
03:41PM 43.2922 -88.5094 152° Southeast 151 174 2,900 -540 Descending Chicago Center
03:42PM 43.2689 -88.5422 226° Southwest 130 150 2,500 -240 Descending Chicago Center
03:43PM 43.2503 -88.5739 231° Southwest 116 133 2,500  Level Chicago Center
03:44PM 43.2347 -88.6019 233° Southwest 104 120 2,500 -60 Level Chicago Center
03:45PM 43.2208 -88.6289 235° Southwest 94 108 2,400 -300 Descending Chicago Center
03:46PM 43.2033 -88.6611 233° Southwest 94 108 2,000 -420 Descending Chicago Center